Time;durP1;ratioP1;P1;durP2;ratioP2;P2;SDS_P1;SDS_P2;PMS_P1;PMS_P2;Temp;Humidity;BMP_temperature;BMP_pressure;BME280_temperature;BME280_humidity;BME280_pressure;Samples;Min_cycle;Max_cycle;Signal;HPM_P1;HPM_P2
2022/06/17 00:00:54;;;;;;;11.93;7.60;;;18.00;90.60;;;;;;5082195;28;20947;-64
2022/06/17 00:03:22;;;;;;;9.20;6.83;;;18.00;90.80;;;;;;5083175;28;20479;-65
2022/06/17 00:05:50;;;;;;;10.10;8.10;;;18.00;91.10;;;;;;5081089;28;20498;-65
2022/06/17 00:08:20;;;;;;;8.10;6.60;;;17.90;91.30;;;;;;5080206;28;20523;-68
2022/06/17 00:10:47;;;;;;;12.03;8.13;;;17.90;91.40;;;;;;5081812;28;20757;-65
2022/06/17 00:13:16;;;;;;;8.77;7.17;;;17.80;91.50;;;;;;5083580;28;20436;-65
2022/06/17 00:15:46;;;;;;;11.13;8.07;;;17.80;91.60;;;;;;5080948;28;20441;-64
2022/06/17 00:18:14;;;;;;;10.10;6.97;;;17.70;91.50;;;;;;5083724;28;20447;-65
2022/06/17 00:20:42;;;;;;;9.43;7.90;;;17.70;91.70;;;;;;5082239;28;20481;-65
2022/06/17 00:23:13;;;;;;;8.70;7.53;;;17.70;91.70;;;;;;5080504;28;20487;-66
2022/06/17 00:25:40;;;;;;;7.93;7.13;;;17.70;91.40;;;;;;5080071;28;20447;-65
2022/06/17 00:28:14;;;;;;;12.27;7.20;;;17.50;91.60;;;;;;5083259;28;20475;-64
2022/06/17 00:30:41;;;;;;;12.23;7.60;;;17.50;91.90;;;;;;5079343;28;20440;-65
2022/06/17 00:33:10;;;;;;;14.50;7.83;;;17.50;91.90;;;;;;5080917;28;20472;-65
2022/06/17 00:35:39;;;;;;;10.80;8.47;;;17.50;91.90;;;;;;5082338;28;20521;-64
2022/06/17 00:38:10;;;;;;;9.30;7.77;;;17.50;92.00;;;;;;5082996;28;20491;-65
2022/06/17 00:40:37;;;;;;;8.33;6.90;;;17.50;92.00;;;;;;5079589;28;20439;-65
2022/06/17 00:43:10;;;;;;;9.33;7.17;;;17.40;91.80;;;;;;5081411;28;20573;-65
2022/06/17 00:45:43;;;;;;;9.30;7.73;;;17.40;91.50;;;;;;5082226;28;20849;-65
2022/06/17 00:48:15;;;;;;;8.77;7.53;;;17.30;91.70;;;;;;5080290;28;20456;-65
2022/06/17 00:50:49;;;;;;;8.93;6.70;;;17.30;92.00;;;;;;5083078;28;20428;-65
2022/06/17 00:53:20;;;;;;;8.83;6.40;;;17.30;92.20;;;;;;5075932;28;20482;-65
2022/06/17 00:55:53;;;;;;;15.33;6.57;;;17.30;92.30;;;;;;5076005;28;20850;-65
2022/06/17 00:58:22;;;;;;;6.87;6.17;;;17.20;92.40;;;;;;5075596;28;20768;-65
2022/06/17 01:00:53;;;;;;;8.30;7.50;;;17.20;92.60;;;;;;5082230;28;20481;-64
2022/06/17 01:03:28;;;;;;;7.77;6.97;;;17.20;92.60;;;;;;5080295;28;20578;-65
2022/06/17 01:06:00;;;;;;;8.83;6.90;;;17.20;92.50;;;;;;5068915;28;20485;-65
2022/06/17 01:11:31;;;;;;;8.00;6.97;;;17.00;92.30;;;;;;5033333;28;20441;-65
2022/06/17 01:14:01;;;;;;;8.43;6.47;;;17.00;92.20;;;;;;5038486;28;20461;-65
2022/06/17 01:16:32;;;;;;;7.50;6.37;;;17.00;92.40;;;;;;5056213;28;20523;-65
2022/06/17 01:19:09;;;;;;;7.83;7.03;;;16.90;92.50;;;;;;5078335;28;20436;-66
2022/06/17 01:21:41;;;;;;;10.03;7.70;;;16.90;92.60;;;;;;5081102;28;20478;-65
2022/06/17 01:24:10;;;;;;;9.23;7.57;;;16.90;93.00;;;;;;5076023;28;20499;-65
2022/06/17 01:26:37;;;;;;;12.40;7.37;;;16.90;93.00;;;;;;5077279;28;20522;-65
2022/06/17 01:29:08;;;;;;;12.10;7.93;;;16.80;93.10;;;;;;5079388;28;21059;-65
2022/06/17 01:31:35;;;;;;;8.90;7.40;;;16.70;93.40;;;;;;5075982;28;20531;-64
2022/06/17 01:34:02;;;;;;;10.50;7.00;;;16.70;93.60;;;;;;5076253;28;20471;-65
2022/06/17 01:36:30;;;;;;;12.57;8.17;;;16.80;93.80;;;;;;5077787;28;20492;-65
2022/06/17 01:38:59;;;;;;;8.53;7.20;;;16.80;93.70;;;;;;5077438;28;20471;-65
2022/06/17 01:41:31;;;;;;;10.47;6.87;;;16.80;93.80;;;;;;5076018;28;20439;-67
2022/06/17 01:44:01;;;;;;;13.00;7.70;;;16.80;93.70;;;;;;5074114;28;21090;-65
2022/06/17 01:46:34;;;;;;;11.27;6.60;;;16.80;93.40;;;;;;5077704;28;20448;-65
2022/06/17 01:49:04;;;;;;;9.70;6.40;;;16.70;93.20;;;;;;5080021;28;20539;-65
2022/06/17 01:51:34;;;;;;;8.03;6.17;;;16.70;93.00;;;;;;5080026;28;20440;-65
2022/06/17 01:54:13;;;;;;;10.40;5.73;;;16.70;93.00;;;;;;5079755;28;20443;-65
2022/06/17 01:56:43;;;;;;;6.70;6.00;;;16.60;92.60;;;;;;5076778;28;20440;-64
2022/06/17 01:59:14;;;;;;;7.93;5.80;;;16.50;92.40;;;;;;5078453;28;20898;-65
2022/06/17 02:01:45;;;;;;;11.27;6.40;;;16.50;91.80;;;;;;5077223;28;20970;-65
2022/06/17 02:04:16;;;;;;;8.73;6.87;;;16.30;91.00;;;;;;5075524;28;20494;-65
2022/06/17 02:06:49;;;;;;;6.97;6.27;;;16.20;91.70;;;;;;5074276;28;20440;-65
2022/06/17 02:09:16;;;;;;;7.90;6.37;;;16.00;92.00;;;;;;5080321;28;20522;-65
2022/06/17 02:11:45;;;;;;;7.40;6.57;;;15.90;92.80;;;;;;5077985;28;20860;-65
2022/06/17 02:14:13;;;;;;;9.13;6.77;;;15.80;93.20;;;;;;5078678;28;20531;-65
2022/06/17 02:16:43;;;;;;;8.83;7.93;;;15.70;93.20;;;;;;5080799;28;20440;-65
2022/06/17 02:19:12;;;;;;;13.67;7.30;;;15.70;93.70;;;;;;5079283;28;20505;-65
2022/06/17 02:21:43;;;;;;;8.30;7.50;;;15.70;93.90;;;;;;5080460;28;20534;-65
2022/06/17 02:24:12;;;;;;;8.37;5.90;;;15.70;94.30;;;;;;5078868;28;20595;-65
2022/06/17 02:26:42;;;;;;;7.20;6.50;;;15.80;94.40;;;;;;5081199;28;20522;-65
2022/06/17 02:29:13;;;;;;;8.33;7.47;;;15.70;94.70;;;;;;5080118;28;20772;-65
2022/06/17 02:31:43;;;;;;;11.63;6.97;;;15.70;94.90;;;;;;5078388;28;20436;-65
2022/06/17 02:34:14;;;;;;;8.23;6.50;;;15.70;94.90;;;;;;5080802;28;20432;-65
2022/06/17 02:36:48;;;;;;;7.30;6.27;;;15.70;94.70;;;;;;5078787;28;20549;-65
2022/06/17 02:39:16;;;;;;;7.30;6.60;;;15.70;94.90;;;;;;5078380;28;20883;-65
2022/06/17 02:41:44;;;;;;;8.30;6.37;;;15.70;95.10;;;;;;5078673;28;20451;-65
2022/06/17 02:44:17;;;;;;;7.10;6.07;;;15.70;95.30;;;;;;5075052;28;20570;-64
2022/06/17 02:46:46;;;;;;;9.33;7.17;;;15.70;95.40;;;;;;5070478;28;20948;-65
2022/06/17 02:49:17;;;;;;;8.50;7.70;;;15.70;95.30;;;;;;5070499;28;20443;-65
2022/06/17 02:51:45;;;;;;;8.03;6.70;;;15.70;94.90;;;;;;5070313;28;20451;-65
2022/06/17 02:54:17;;;;;;;7.80;7.00;;;15.70;94.60;;;;;;5071138;28;20867;-65
2022/06/17 02:56:49;;;;;;;7.43;6.17;;;15.60;94.60;;;;;;5076001;28;20438;-65
2022/06/17 02:59:22;;;;;;;6.70;6.10;;;15.60;94.60;;;;;;5079397;28;20449;-65
2022/06/17 03:01:52;;;;;;;8.13;6.10;;;15.60;94.30;;;;;;5079602;28;20448;-64
2022/06/17 03:04:24;;;;;;;7.13;6.00;;;15.50;94.00;;;;;;5079523;28;20864;-65
2022/06/17 03:06:52;;;;;;;7.07;6.40;;;15.40;94.70;;;;;;5082670;28;20826;-64
2022/06/17 03:09:22;;;;;;;7.30;5.63;;;15.50;94.80;;;;;;5084528;28;20874;-65
2022/06/17 03:11:53;;;;;;;9.90;6.43;;;15.40;94.30;;;;;;5081285;28;20442;-65
2022/06/17 03:14:23;;;;;;;6.20;5.60;;;15.30;94.60;;;;;;5084589;28;20436;-65
2022/06/17 03:16:53;;;;;;;6.70;6.10;;;15.40;94.90;;;;;;5082709;28;20470;-65
2022/06/17 03:19:21;;;;;;;9.50;6.60;;;15.30;94.90;;;;;;5084408;28;20513;-65
2022/06/17 03:21:48;;;;;;;7.70;7.00;;;15.40;95.10;;;;;;5082733;28;20447;-65
2022/06/17 03:24:22;;;;;;;8.00;6.60;;;15.40;95.10;;;;;;5083401;28;20923;-66
2022/06/17 03:26:54;;;;;;;7.83;5.83;;;15.40;95.00;;;;;;5082618;28;20442;-65
2022/06/17 03:29:26;;;;;;;7.30;5.70;;;15.40;94.40;;;;;;5083336;28;20475;-64
2022/06/17 03:32:00;;;;;;;6.70;6.00;;;15.30;94.70;;;;;;5080875;28;20442;-65
2022/06/17 03:34:33;;;;;;;8.43;6.17;;;15.20;95.10;;;;;;5083198;28;20934;-66
2022/06/17 03:37:04;;;;;;;11.27;5.50;;;15.20;95.40;;;;;;5084237;28;20454;-66
2022/06/17 03:39:36;;;;;;;7.80;6.13;;;15.20;95.70;;;;;;5080843;28;20527;-65
2022/06/17 03:42:08;;;;;;;9.77;6.47;;;15.30;95.60;;;;;;5082738;28;20934;-66
2022/06/17 03:44:41;;;;;;;7.20;6.00;;;15.40;95.50;;;;;;5082290;28;20984;-65
2022/06/17 03:47:16;;;;;;;7.73;5.40;;;15.40;95.50;;;;;;5080217;28;20539;-65
2022/06/17 03:49:46;;;;;;;7.07;6.33;;;15.40;95.30;;;;;;5077837;28;20490;-65
2022/06/17 03:52:19;;;;;;;13.80;6.40;;;15.40;95.40;;;;;;5082276;28;20455;-65
2022/06/17 03:54:47;;;;;;;7.63;6.43;;;15.40;95.40;;;;;;5081199;28;20447;-65
2022/06/17 03:57:17;;;;;;;11.00;6.93;;;15.40;95.30;;;;;;5084693;28;20450;-65
2022/06/17 03:59:49;;;;;;;8.70;5.83;;;15.40;95.20;;;;;;5077683;28;20475;-65
2022/06/17 04:02:19;;;;;;;7.77;6.00;;;15.50;95.30;;;;;;5081353;28;20443;-65
2022/06/17 04:04:51;;;;;;;9.33;6.40;;;15.50;95.30;;;;;;5081932;28;20479;-64
2022/06/17 04:07:18;;;;;;;6.83;5.90;;;15.50;95.30;;;;;;5081175;28;20439;-65
2022/06/17 04:09:47;;;;;;;9.60;7.13;;;15.50;95.30;;;;;;5078453;28;20481;-65
2022/06/17 04:12:23;;;;;;;8.43;6.67;;;15.60;94.90;;;;;;5080497;28;20456;-65
2022/06/17 04:14:58;;;;;;;8.50;6.30;;;15.50;95.00;;;;;;5078224;28;20930;-65
2022/06/17 04:17:31;;;;;;;9.10;6.50;;;15.50;95.10;;;;;;5083746;28;20490;-66
2022/06/17 04:20:30;;;;;;;9.83;6.70;;;15.50;95.30;;;;;;5079789;28;20523;-65
2022/06/17 04:23:03;;;;;;;9.90;6.30;;;15.50;95.50;;;;;;5079369;28;20800;-70
2022/06/17 04:25:34;;;;;;;7.40;6.70;;;15.50;95.70;;;;;;5082602;28;20482;-65
2022/06/17 04:28:06;;;;;;;6.50;5.83;;;15.50;95.70;;;;;;5081049;28;20472;-65
2022/06/17 04:30:40;;;;;;;6.97;5.90;;;15.60;96.50;;;;;;5080431;28;20435;-65
2022/06/17 04:33:21;;;;;;;7.23;5.93;;;15.70;96.30;;;;;;5083578;28;20876;-65
2022/06/17 04:35:51;;;;;;;7.47;6.70;;;15.70;96.40;;;;;;5079802;28;20535;-65
2022/06/17 04:38:18;;;;;;;7.50;6.53;;;15.80;96.30;;;;;;5080599;28;20526;-65
2022/06/17 04:40:49;;;;;;;10.27;6.60;;;15.80;96.20;;;;;;5080048;28;20456;-65
2022/06/17 04:43:26;;;;;;;6.07;5.53;;;15.90;96.30;;;;;;5080803;28;20440;-65
2022/06/17 04:45:59;;;;;;;8.30;7.50;;;15.90;96.40;;;;;;5077639;28;20439;-65
2022/06/17 04:48:26;;;;;;;6.20;5.60;;;16.00;96.50;;;;;;5080426;28;20466;-67
2022/06/17 04:50:54;;;;;;;7.40;6.37;;;16.10;96.50;;;;;;5083767;28;20440;-65
2022/06/17 04:53:21;;;;;;;9.70;7.23;;;16.20;96.50;;;;;;5080864;28;20432;-65
2022/06/17 04:55:49;;;;;;;8.50;6.33;;;16.20;96.60;;;;;;5080628;28;20498;-65
2022/06/17 04:58:18;;;;;;;11.57;7.17;;;16.30;96.90;;;;;;5080650;28;20440;-65
2022/06/17 05:00:48;;;;;;;8.97;7.20;;;16.50;96.90;;;;;;5080246;28;20925;-65
2022/06/17 05:03:17;;;;;;;8.00;7.20;;;16.60;96.90;;;;;;5080873;28;20447;-65
2022/06/17 05:05:47;;;;;;;8.37;7.10;;;16.60;96.70;;;;;;5070960;28;20485;-65
2022/06/17 05:08:20;;;;;;;9.07;6.70;;;16.70;96.60;;;;;;5080266;28;20442;-69
2022/06/17 05:10:52;;;;;;;8.67;7.13;;;16.70;96.40;;;;;;5080709;28;20447;-65
2022/06/17 05:13:25;;;;;;;8.57;7.47;;;16.70;96.70;;;;;;5079577;28;20451;-66
2022/06/17 05:15:52;;;;;;;9.73;7.90;;;16.90;96.80;;;;;;5074181;28;20448;-65
2022/06/17 05:18:21;;;;;;;9.40;6.87;;;17.00;96.60;;;;;;5071969;28;20498;-65
2022/06/17 05:20:48;;;;;;;8.37;7.17;;;17.10;96.30;;;;;;5077743;28;20501;-67
2022/06/17 05:23:17;;;;;;;8.50;7.60;;;17.30;96.10;;;;;;5079541;28;20553;-65
2022/06/17 05:25:46;;;;;;;8.67;7.13;;;17.30;96.10;;;;;;5081178;28;20525;-65
2022/06/17 05:28:16;;;;;;;9.33;6.83;;;17.50;96.20;;;;;;5079090;28;21062;-65
2022/06/17 05:30:51;;;;;;;7.50;6.40;;;17.50;95.10;;;;;;5082030;28;20440;-65
2022/06/17 05:33:19;;;;;;;7.93;6.80;;;17.60;94.80;;;;;;5076033;28;20482;-65
2022/06/17 05:35:48;;;;;;;10.13;7.87;;;17.70;95.00;;;;;;5073181;28;20526;-65
2022/06/17 05:38:15;;;;;;;7.80;7.10;;;17.90;95.00;;;;;;5075060;28;21019;-66
2022/06/17 05:40:43;;;;;;;9.77;7.40;;;18.00;94.10;;;;;;5079796;28;20516;-65
2022/06/17 05:43:11;;;;;;;8.47;7.40;;;18.00;94.00;;;;;;5079523;28;20443;-65
2022/06/17 05:45:39;;;;;;;8.57;6.70;;;18.10;93.50;;;;;;5080823;28;20484;-65
2022/06/17 05:48:07;;;;;;;9.43;6.97;;;18.30;93.50;;;;;;5077109;28;20874;-65
2022/06/17 05:50:34;;;;;;;7.80;7.03;;;18.40;93.20;;;;;;5071381;28;20515;-66
2022/06/17 05:53:05;;;;;;;7.93;6.13;;;18.50;92.60;;;;;;5082873;28;20929;-66
2022/06/17 05:55:34;;;;;;;12.50;7.87;;;18.60;92.40;;;;;;5080054;28;20475;-65
2022/06/17 05:58:01;;;;;;;7.97;7.10;;;18.60;92.40;;;;;;5081986;28;20924;-65
2022/06/17 06:00:31;;;;;;;7.50;6.70;;;18.80;92.50;;;;;;5071871;28;20484;-66
2022/06/17 06:03:00;;;;;;;7.90;6.07;;;19.00;92.00;;;;;;5075498;28;20431;-65
2022/06/17 06:05:30;;;;;;;8.43;7.53;;;19.10;91.90;;;;;;5076037;28;20558;-65
2022/06/17 06:07:57;;;;;;;7.30;6.60;;;19.20;91.30;;;;;;5078074;28;20874;-66
2022/06/17 06:10:26;;;;;;;11.13;6.37;;;19.40;91.20;;;;;;5080339;28;20519;-65
2022/06/17 06:13:01;;;;;;;8.83;7.93;;;19.50;91.40;;;;;;5081523;28;20436;-65
2022/06/17 06:15:32;;;;;;;9.87;7.53;;;19.60;91.30;;;;;;5078487;28;20431;-65
2022/06/17 06:17:59;;;;;;;10.90;7.40;;;19.70;91.50;;;;;;5080114;28;20446;-65
2022/06/17 06:20:27;;;;;;;8.87;6.83;;;19.90;91.60;;;;;;5080668;28;20497;-66
2022/06/17 06:22:54;;;;;;;9.13;6.50;;;20.00;90.50;;;;;;5080897;28;20457;-67
2022/06/17 06:25:22;;;;;;;9.20;6.10;;;20.10;90.10;;;;;;5080210;28;20475;-65
2022/06/17 06:27:50;;;;;;;10.80;6.83;;;20.10;90.20;;;;;;5081444;28;20874;-65
2022/06/17 06:30:21;;;;;;;8.50;6.63;;;20.30;90.10;;;;;;5076551;28;20475;-65
2022/06/17 06:32:53;;;;;;;9.13;6.80;;;20.30;89.00;;;;;;5082080;28;21593;-65
2022/06/17 06:35:23;;;;;;;10.10;7.70;;;20.40;89.80;;;;;;5083181;28;20476;-65
2022/06/17 06:37:50;;;;;;;8.63;7.30;;;20.50;89.40;;;;;;5085060;28;20439;-66
2022/06/17 06:40:18;;;;;;;5.60;4.57;;;20.50;89.00;;;;;;5082685;28;20444;-65
2022/06/17 06:42:47;;;;;;;8.20;5.00;;;20.70;85.70;;;;;;5086240;28;20501;-65
2022/06/17 06:45:20;;;;;;;6.80;5.27;;;20.70;84.30;;;;;;5079449;28;20570;-66
2022/06/17 06:47:49;;;;;;;5.60;4.60;;;20.80;82.40;;;;;;5085840;28;20504;-65
2022/06/17 06:50:18;;;;;;;6.53;5.27;;;20.90;81.30;;;;;;5082127;28;20444;-67
2022/06/17 06:52:46;;;;;;;7.63;5.23;;;20.90;81.30;;;;;;5084369;28;20794;-65
2022/06/17 06:55:14;;;;;;;10.80;5.20;;;21.00;81.40;;;;;;5082465;28;20897;-66
2022/06/17 06:57:51;;;;;;;5.00;4.50;;;21.10;80.00;;;;;;5082595;28;20463;-65
2022/06/17 07:00:23;;;;;;;7.93;4.80;;;21.10;79.20;;;;;;5081234;28;20454;-65
2022/06/17 07:02:50;;;;;;;8.27;4.40;;;21.10;78.50;;;;;;5081496;28;20448;-66
2022/06/17 07:05:17;;;;;;;9.00;4.80;;;21.20;78.60;;;;;;5085275;28;20483;-65
2022/06/17 07:07:46;;;;;;;7.23;4.90;;;21.30;78.90;;;;;;5079950;28;20918;-65
2022/06/17 07:10:16;;;;;;;6.60;4.40;;;21.40;79.40;;;;;;5085378;28;20475;-66
2022/06/17 07:12:43;;;;;;;7.03;5.00;;;21.50;77.20;;;;;;5082507;28;20444;-66
2022/06/17 07:15:11;;;;;;;4.97;3.97;;;21.60;76.20;;;;;;5084975;28;20917;-66
2022/06/17 07:17:40;;;;;;;4.83;4.30;;;21.70;75.80;;;;;;5082980;28;20443;-66
2022/06/17 07:20:10;;;;;;;5.30;4.03;;;21.80;75.10;;;;;;5083281;28;20447;-66
2022/06/17 07:22:38;;;;;;;5.90;4.17;;;21.90;73.30;;;;;;5084741;28;20531;-65
2022/06/17 07:25:06;;;;;;;8.20;4.53;;;22.00;73.20;;;;;;5081539;28;20471;-65
2022/06/17 07:27:33;;;;;;;6.67;4.60;;;22.20;73.20;;;;;;5074327;28;20458;-66
2022/06/17 07:30:00;;;;;;;7.57;5.00;;;22.30;72.20;;;;;;5077190;28;20481;-66
2022/06/17 07:32:27;;;;;;;6.23;4.13;;;22.40;69.50;;;;;;5077746;28;21007;-66
2022/06/17 07:34:55;;;;;;;4.67;4.17;;;22.50;69.70;;;;;;5078720;28;20834;-66
2022/06/17 07:40:08;;;;;;;8.63;4.20;;;22.60;65.50;;;;;;5077301;28;20522;-66
2022/06/17 07:42:38;;;;;;;5.40;3.70;;;22.60;64.90;;;;;;5079054;28;21427;-65
2022/06/17 07:45:09;;;;;;;6.70;3.40;;;22.70;65.60;;;;;;5076940;28;20479;-66
2022/06/17 07:47:37;;;;;;;9.90;4.00;;;22.70;64.30;;;;;;5076235;28;20432;-66
2022/06/17 07:50:09;;;;;;;5.97;3.97;;;22.80;64.10;;;;;;5074279;28;20439;-66
2022/06/17 07:52:36;;;;;;;4.90;3.20;;;22.80;61.80;;;;;;5078585;28;20786;-67
2022/06/17 07:55:04;;;;;;;5.90;3.67;;;22.90;63.10;;;;;;5074373;28;20524;-66
2022/06/17 07:57:31;;;;;;;6.70;3.70;;;23.00;62.40;;;;;;5074842;28;20484;-66
2022/06/17 07:59:58;;;;;;;10.10;3.90;;;23.20;63.90;;;;;;5077448;28;20442;-66
2022/06/17 08:02:25;;;;;;;5.03;3.97;;;23.30;64.60;;;;;;5078366;28;20454;-67
2022/06/17 08:04:53;;;;;;;5.57;3.87;;;23.50;59.90;;;;;;5075428;28;20486;-65
2022/06/17 08:07:21;;;;;;;5.17;3.90;;;23.60;60.70;;;;;;5079642;28;20492;-66
2022/06/17 08:09:48;;;;;;;8.00;4.30;;;23.80;60.90;;;;;;5076503;28;20493;-66
2022/06/17 08:12:15;;;;;;;5.83;4.10;;;24.00;60.50;;;;;;5074946;28;20447;-67
2022/06/17 08:14:46;;;;;;;6.93;4.00;;;24.00;57.60;;;;;;5076420;28;20798;-65
2022/06/17 08:17:14;;;;;;;5.73;3.67;;;24.10;57.30;;;;;;5076376;28;20443;-69
2022/06/17 08:19:43;;;;;;;5.77;3.57;;;24.10;56.80;;;;;;5075449;28;20478;-67
2022/06/17 08:22:11;;;;;;;6.13;3.67;;;24.20;55.40;;;;;;5076843;28;20443;-66
2022/06/17 08:24:39;;;;;;;6.30;3.57;;;24.40;57.60;;;;;;5074976;28;20456;-67
2022/06/17 08:27:07;;;;;;;4.93;3.13;;;24.60;56.50;;;;;;5075287;28;20440;-66
2022/06/17 08:29:34;;;;;;;5.30;3.60;;;24.70;57.10;;;;;;5072598;28;20471;-66
2022/06/17 08:34:42;;;;;;;4.93;3.07;;;24.90;55.90;;;;;;5077140;28;20432;-67
2022/06/17 08:37:21;;;;;;;3.60;3.30;;;25.00;55.70;;;;;;5075249;28;20513;-66
2022/06/17 08:39:51;;;;;;;6.17;4.00;;;25.10;56.50;;;;;;5076096;28;20443;-66
2022/06/17 08:42:33;;;;;;;14.80;3.23;;;25.20;55.00;;;;;;5075656;28;20790;-66
2022/06/17 08:45:08;;;;;;;5.60;3.70;;;25.30;55.00;;;;;;5075190;28;20478;-67
2022/06/17 08:47:46;;;;;;;8.07;4.20;;;25.40;54.00;;;;;;5072598;28;20443;-66
2022/06/17 08:50:38;;;;;;;5.30;3.17;;;25.50;52.90;;;;;;5072053;28;20428;-68
2022/06/17 08:53:30;;;;;;;4.47;3.30;;;25.50;51.70;;;;;;5077166;28;20439;-68
2022/06/17 08:56:06;;;;;;;5.23;3.37;;;25.60;53.40;;;;;;5073839;28;20488;-68
2022/06/17 08:58:43;;;;;;;5.17;3.43;;;25.60;51.30;;;;;;5069469;28;20493;-66
2022/06/17 09:01:17;;;;;;;5.00;3.40;;;25.60;50.50;;;;;;5075729;28;20530;-67
2022/06/17 09:03:59;;;;;;;4.00;3.60;;;25.60;51.10;;;;;;5069555;28;20555;-66
2022/06/17 09:06:41;;;;;;;6.50;3.90;;;25.60;51.30;;;;;;5073346;28;20487;-66
2022/06/17 09:09:34;;;;;;;4.70;3.30;;;25.60;49.30;;;;;;5076559;28;20448;-66
2022/06/17 09:12:13;;;;;;;6.80;3.93;;;25.70;49.80;;;;;;5074220;28;20439;-66
2022/06/17 09:14:48;;;;;;;5.50;3.20;;;25.80;50.50;;;;;;5067438;28;20851;-67
2022/06/17 09:17:26;;;;;;;7.07;3.77;;;25.80;48.70;;;;;;5068818;28;20836;-67
2022/06/17 09:20:00;;;;;;;5.87;3.30;;;25.80;48.10;;;;;;5072195;28;21865;-66
2022/06/17 09:22:34;;;;;;;5.20;3.33;;;25.90;49.80;;;;;;5073431;28;20450;-67
2022/06/17 09:25:05;;;;;;;11.83;3.47;;;26.00;49.00;;;;;;5072518;28;20451;-67
2022/06/17 09:27:37;;;;;;;8.50;3.87;;;26.00;48.60;;;;;;5074957;28;20484;-67
2022/06/17 09:30:11;;;;;;;6.27;3.17;;;26.00;47.20;;;;;;5072619;28;20439;-66
2022/06/17 09:32:42;;;;;;;5.60;3.20;;;26.10;48.20;;;;;;5075095;28;20933;-66
2022/06/17 09:35:19;;;;;;;5.17;3.77;;;26.20;48.70;;;;;;5073636;28;20439;-67
2022/06/17 09:37:51;;;;;;;4.70;3.10;;;26.40;49.20;;;;;;5071464;28;20497;-65
2022/06/17 09:40:26;;;;;;;6.60;2.83;;;26.40;46.90;;;;;;5073498;28;20519;-68
2022/06/17 09:43:02;;;;;;;6.87;2.77;;;26.60;46.30;;;;;;5073462;28;20838;-66
2022/06/17 09:45:36;;;;;;;4.40;2.97;;;26.70;45.50;;;;;;5069837;28;20976;-68
2022/06/17 09:48:09;;;;;;;4.27;3.07;;;26.60;43.90;;;;;;5062101;28;20438;-67
2022/06/17 09:50:42;;;;;;;4.17;3.30;;;26.60;45.30;;;;;;5064196;28;20576;-66
2022/06/17 09:53:14;;;;;;;4.23;3.43;;;26.70;44.30;;;;;;5067169;28;20493;-66
2022/06/17 09:55:46;;;;;;;4.53;3.23;;;26.70;44.30;;;;;;5068009;28;20897;-66
2022/06/17 09:58:22;;;;;;;5.30;3.33;;;26.80;46.80;;;;;;5066614;28;20516;-67
2022/06/17 10:00:51;;;;;;;3.83;3.40;;;26.90;47.40;;;;;;5066583;28;21747;-66
2022/06/17 10:03:24;;;;;;;5.30;3.40;;;27.00;46.90;;;;;;5069680;28;20452;-66
2022/06/17 10:06:01;;;;;;;5.90;3.20;;;27.20;47.60;;;;;;5069538;28;20505;-66
2022/06/17 10:08:45;;;;;;;3.97;2.73;;;27.30;44.00;;;;;;5069688;28;20458;-66
2022/06/17 10:11:22;;;;;;;5.20;3.27;;;27.40;44.60;;;;;;5079891;28;20524;-66
2022/06/17 10:14:03;;;;;;;8.30;3.43;;;27.50;45.60;;;;;;5078261;28;20442;-66
2022/06/17 10:19:41;;;;;;;4.70;2.53;;;27.80;45.50;;;;;;5080554;28;20454;-66
2022/06/17 10:22:21;;;;;;;5.40;2.77;;;27.90;46.50;;;;;;5078037;28;20825;-66
2022/06/17 10:25:04;;;;;;;5.83;2.77;;;28.00;44.50;;;;;;5078139;28;20462;-67
2022/06/17 10:27:46;;;;;;;6.77;3.90;;;28.10;45.30;;;;;;5077884;28;20487;-67
2022/06/17 10:30:21;;;;;;;7.27;2.70;;;28.20;45.20;;;;;;5077167;28;20964;-66
2022/06/17 10:32:50;;;;;;;4.30;3.30;;;28.40;45.50;;;;;;5072364;28;20465;-66
2022/06/17 10:35:24;;;;;;;4.50;3.10;;;28.50;43.40;;;;;;5068682;28;20515;-66
2022/06/17 10:37:52;;;;;;;4.77;2.23;;;28.60;41.50;;;;;;5072678;28;20543;-66
2022/06/17 10:40:25;;;;;;;5.30;2.70;;;28.60;41.90;;;;;;5075847;28;20496;-66
2022/06/17 10:42:54;;;;;;;5.40;3.37;;;28.70;40.70;;;;;;5075161;28;20451;-66
2022/06/17 10:45:23;;;;;;;4.47;2.30;;;28.70;42.20;;;;;;5077126;28;20452;-66
2022/06/17 10:47:56;;;;;;;3.53;2.50;;;28.70;40.10;;;;;;5076531;28;20950;-66
2022/06/17 10:50:26;;;;;;;3.67;3.13;;;28.80;38.60;;;;;;5077508;28;20814;-68
2022/06/17 10:53:06;;;;;;;3.50;2.80;;;28.80;38.80;;;;;;5077078;28;20479;-67
2022/06/17 10:55:38;;;;;;;5.67;3.30;;;28.80;40.50;;;;;;5075327;28;21728;-66
2022/06/17 10:58:09;;;;;;;3.63;2.90;;;28.90;41.70;;;;;;5079858;28;20848;-67
2022/06/17 11:00:44;;;;;;;3.40;2.30;;;28.90;41.60;;;;;;5075505;28;20428;-66
2022/06/17 11:03:22;;;;;;;4.50;2.10;;;29.00;38.70;;;;;;5079222;28;20443;-67
2022/06/17 11:05:56;;;;;;;3.80;2.60;;;29.00;37.90;;;;;;5076421;28;20481;-66
2022/06/17 11:08:27;;;;;;;4.33;2.37;;;29.00;38.70;;;;;;5075506;28;21260;-66
2022/06/17 11:10:57;;;;;;;4.10;2.07;;;29.00;40.00;;;;;;5073282;28;20458;-66
2022/06/17 11:13:26;;;;;;;4.97;2.20;;;29.00;38.00;;;;;;5077320;28;20440;-66
2022/06/17 11:15:58;;;;;;;3.20;2.13;;;29.10;37.00;;;;;;5077392;28;20528;-66
2022/06/17 11:18:29;;;;;;;3.17;2.10;;;29.10;36.80;;;;;;5076115;28;20497;-66
2022/06/17 11:20:59;;;;;;;3.67;2.20;;;29.20;38.40;;;;;;5077915;28;20497;-66
2022/06/17 11:23:30;;;;;;;4.70;2.87;;;29.30;37.80;;;;;;5075243;28;20441;-66
2022/06/17 11:26:10;;;;;;;6.77;2.90;;;29.30;39.90;;;;;;5073481;28;20505;-66
2022/06/17 11:28:39;;;;;;;5.80;2.70;;;29.30;38.80;;;;;;5078071;28;20491;-67
2022/06/17 11:31:14;;;;;;;3.80;2.30;;;29.40;38.30;;;;;;5077452;28;20451;-66
2022/06/17 11:33:58;;;;;;;4.43;2.37;;;29.40;36.90;;;;;;5074598;28;20865;-66
2022/06/17 11:36:29;;;;;;;3.00;1.70;;;29.40;38.20;;;;;;5069592;28;20442;-67
2022/06/17 11:38:58;;;;;;;4.30;2.27;;;29.40;35.70;;;;;;5071822;28;21635;-66
2022/06/17 11:41:30;;;;;;;4.73;2.20;;;29.40;35.50;;;;;;5070978;28;20861;-68
2022/06/17 11:44:08;;;;;;;5.50;2.00;;;29.30;34.20;;;;;;5071387;28;20428;-66
2022/06/17 11:46:47;;;;;;;2.60;2.10;;;29.30;36.40;;;;;;5072591;28;20487;-67
2022/06/17 11:49:17;;;;;;;3.13;1.83;;;29.20;37.70;;;;;;5071718;28;20519;-67
2022/06/17 11:51:51;;;;;;;3.30;2.10;;;29.30;36.60;;;;;;5072154;28;20436;-67
2022/06/17 11:54:22;;;;;;;3.33;2.10;;;29.30;37.40;;;;;;5068556;28;20768;-66
2022/06/17 11:56:50;;;;;;;2.60;1.80;;;29.30;35.20;;;;;;5071421;28;20447;-66
2022/06/17 11:59:20;;;;;;;5.03;2.20;;;29.30;36.50;;;;;;5072789;28;20498;-67
2022/06/17 12:02:02;;;;;;;4.73;2.30;;;29.30;38.20;;;;;;5071786;28;20440;-66
2022/06/17 12:04:38;;;;;;;4.53;2.60;;;29.40;39.70;;;;;;5072408;28;20538;-67
2022/06/17 12:07:25;;;;;;;3.80;2.40;;;29.40;39.00;;;;;;5068469;28;20479;-66
2022/06/17 12:09:59;;;;;;;4.83;2.47;;;29.40;38.70;;;;;;5068256;28;20454;-66
2022/06/17 12:12:29;;;;;;;4.10;2.53;;;29.40;39.00;;;;;;5069784;28;20431;-66
2022/06/17 12:15:01;;;;;;;3.20;2.40;;;29.40;38.70;;;;;;5070972;28;20497;-69
2022/06/17 12:17:31;;;;;;;3.73;2.30;;;29.30;37.40;;;;;;5071797;28;20428;-66
2022/06/17 12:19:58;;;;;;;4.37;2.03;;;29.30;36.50;;;;;;5071956;28;20459;-66
2022/06/17 12:22:33;;;;;;;3.20;2.03;;;29.30;38.40;;;;;;5071115;28;20471;-66
2022/06/17 12:25:07;;;;;;;3.97;2.10;;;29.30;38.90;;;;;;5071088;28;20767;-66
2022/06/17 12:27:38;;;;;;;3.00;2.27;;;29.20;36.00;;;;;;5070547;28;20483;-67
2022/06/17 12:30:10;;;;;;;3.50;1.60;;;29.20;36.90;;;;;;5072154;28;20791;-66
2022/06/17 12:32:44;;;;;;;6.13;2.50;;;29.30;36.40;;;;;;5071828;28;21066;-66
2022/06/17 12:35:18;;;;;;;5.63;2.37;;;29.30;37.90;;;;;;5067885;28;20485;-66
2022/06/17 12:37:54;;;;;;;3.63;2.40;;;29.30;38.80;;;;;;5069819;28;20431;-66
2022/06/17 12:40:30;;;;;;;4.10;1.97;;;29.40;39.20;;;;;;5071293;28;20444;-70
2022/06/17 12:43:04;;;;;;;4.03;2.50;;;29.40;38.60;;;;;;5072098;28;20462;-66
2022/06/17 12:45:39;;;;;;;5.90;2.27;;;29.30;37.70;;;;;;5070712;28;20481;-66
2022/06/17 12:48:22;;;;;;;2.90;1.93;;;29.30;37.60;;;;;;5071764;28;20523;-66
2022/06/17 12:53:49;;;;;;;4.23;2.23;;;29.30;35.60;;;;;;5071267;28;20419;-66
2022/06/17 12:56:31;;;;;;;3.53;2.13;;;29.30;36.40;;;;;;5071867;28;20444;-66
2022/06/17 12:59:11;;;;;;;3.30;2.30;;;29.20;36.90;;;;;;5068252;28;20440;-66
2022/06/17 13:01:43;;;;;;;2.70;2.00;;;29.20;35.80;;;;;;5071263;28;20502;-66
2022/06/17 13:04:24;;;;;;;3.57;2.00;;;29.10;34.70;;;;;;5071020;28;20561;-66
2022/06/17 13:07:03;;;;;;;2.60;1.70;;;29.10;34.50;;;;;;5071116;28;20476;-66
2022/06/17 13:09:39;;;;;;;3.00;2.13;;;29.10;34.80;;;;;;5070780;28;20432;-66
2022/06/17 13:12:14;;;;;;;7.00;3.07;;;29.10;36.00;;;;;;5070947;28;20430;-67
2022/06/17 13:14:51;;;;;;;2.87;1.80;;;29.10;36.30;;;;;;5070967;28;20949;-66
2022/06/17 13:17:26;;;;;;;4.00;2.50;;;29.10;35.70;;;;;;5071194;28;20428;-66
2022/06/17 13:20:05;;;;;;;4.93;2.73;;;29.10;37.00;;;;;;5071371;28;20513;-66
2022/06/17 13:22:42;;;;;;;3.30;2.10;;;29.00;36.50;;;;;;5071120;28;20446;-66